Craig G — WDB5332 — position and weather

sailwx.info

Track history (hours):
 
Tides and Currents Weather Stations Pressure Air Temp Water Temp Dewpoint Dewpoint Depression Visibility Wind Speed Wind Dir Waves Ship Positions

Craig G

More information available from US FCC via Universal Licensing System and Coast Guard Vessel Documentation Center.

Last reported at 2014-Jul-22 22:33 UTC. Time now 2014-Jul-22 23:15 UTC.
Position N 32°60' W 118°30'.

Length 28 m; draft 2 m.

Type: Other ship. MMSI: 366908460.

Date/timePositionNaut miles runAvg speedWind from/ knotsBaromVisibWave heightAir tempDewpointWater temp
2014-Jul-22 22:33N 32°60' W 118°30'3 3.5
2014-Jul-22 21:33N 33°00' W 118°26'3 2.8
2014-Jul-22 20:33N 32°60' W 118°30'3 3.2
2014-Jul-22 19:33N 33°00' W 118°33'0 0.0
2014-Jul-22 18:15N 33°00' W 118°33'0 0.0
2014-Jul-22 17:31N 33°00' W 118°33'0 0.0
2014-Jul-22 16:33N 33°00' W 118°33'0 0.0
2014-Jul-22 15:26N 33°00' W 118°33'0 0.0
2014-Jul-22 14:24N 33°00' W 118°33'0 0.0
2014-Jul-22 13:33N 33°00' W 118°33'0 0.0
2014-Jul-22 12:32N 33°00' W 118°33'0 0.0
2014-Jul-22 10:33N 33°00' W 118°33'0 0.0
2014-Jul-22 09:32N 33°00' W 118°33'0 0.0
2014-Jul-22 08:30N 33°00' W 118°33'0 0.0
2014-Jul-22 07:32N 33°00' W 118°33'0 0.0
2014-Jul-22 06:28N 33°00' W 118°33'0 0.0
2014-Jul-22 05:30N 33°00' W 118°33'0 0.0
2014-Jul-22 04:33N 33°00' W 118°33'0 0.0
2014-Jul-22 03:32N 33°00' W 118°33'0 0.0
2014-Jul-22 02:33N 33°00' W 118°33'0 0.0
2014-Jul-22 01:30N 33°00' W 118°33'0 0.0
2014-Jul-22 00:33N 33°00' W 118°33'0 0.0
2014-Jul-21 23:32N 33°00' W 118°33'0 0.0
2014-Jul-21 22:33N 33°00' W 118°33'0 0.0
2014-Jul-21 21:12N 33°00' W 118°33'34 7.2
2014-Jul-21 16:32N 32°51' W 117°55'1616.4
2014-Jul-21 15:33N 32°45' W 117°37'1616.0
2014-Jul-21 14:33N 32°40' W 117°19'  
2014-Jul-18 20:33N 32°42' W 117°14'2 1.4
2014-Jul-18 19:29N 32°43' W 117°14'0 0.0
2014-Jul-18 17:27N 32°43' W 117°14'2 0.1
2014-Jul-18 01:19N 32°41' W 117°14'810.6
2014-Jul-18 00:34N 32°40' W 117°23'1817.6
2014-Jul-17 23:34N 32°46' W 117°43'45 2.0
2014-Jul-17 01:11N 33°01' W 118°33'0 0.0
2014-Jul-16 15:09N 33°01' W 118°33'0 0.0
2014-Jul-16 14:12N 33°01' W 118°33'0 0.0
2014-Jul-16 13:32N 33°01' W 118°33'0 0.0
2014-Jul-16 12:29N 33°01' W 118°33'0 0.0
2014-Jul-16 11:05N 33°01' W 118°33'0 0.0
2014-Jul-16 10:31N 33°01' W 118°33'0 0.0
2014-Jul-16 09:28N 33°01' W 118°33'0 0.0
2014-Jul-16 04:24N 33°01' W 118°33'0 0.0
2014-Jul-16 02:30N 33°01' W 118°33'28 2.8
2014-Jul-15 16:33N 32°52' W 118°01'1716.8
2014-Jul-15 15:33N 32°47' W 117°42'1716.5
2014-Jul-15 14:33N 32°41' W 117°24'8 7.7
2014-Jul-15 13:30N 32°41' W 117°14'0 0.0
2014-Jul-14 18:16N 32°41' W 117°14'2 2.7
2014-Jul-14 17:33N 32°43' W 117°14'0 0.0
2014-Jul-14 16:11N 32°43' W 117°14'0 0.0
2014-Jul-14 15:31N 32°43' W 117°14'1 1.1
2014-Jul-14 14:34N 32°43' W 117°12'  
Track history (hours):
 
Tides and Currents Weather Stations Pressure Air Temp Water Temp Dewpoint Dewpoint Depression Visibility Wind Speed Wind Dir Waves Ship Positions

Craig G

More information available from US FCC via Universal Licensing System and Coast Guard Vessel Documentation Center.

Last reported at 2014-Jul-22 22:33 UTC. Time now 2014-Jul-22 23:15 UTC.
Position N 32°60' W 118°30'.

Length 28 m; draft 2 m.

Type: Other ship. MMSI: 366908460.

Date/timePositionNaut miles runAvg speedWind from/ knotsBaromVisibWave heightAir tempDewpointWater temp
2014-Jul-22 22:33N 32°60' W 118°30'3 3.5
2014-Jul-22 21:33N 33°00' W 118°26'3 2.8
2014-Jul-22 20:33N 32°60' W 118°30'3 3.2
2014-Jul-22 19:33N 33°00' W 118°33'0 0.0
2014-Jul-22 18:15N 33°00' W 118°33'0 0.0
2014-Jul-22 17:31N 33°00' W 118°33'0 0.0
2014-Jul-22 16:33N 33°00' W 118°33'0 0.0
2014-Jul-22 15:26N 33°00' W 118°33'0 0.0
2014-Jul-22 14:24N 33°00' W 118°33'0 0.0
2014-Jul-22 13:33N 33°00' W 118°33'0 0.0
2014-Jul-22 12:32N 33°00' W 118°33'0 0.0
2014-Jul-22 10:33N 33°00' W 118°33'0 0.0
2014-Jul-22 09:32N 33°00' W 118°33'0 0.0
2014-Jul-22 08:30N 33°00' W 118°33'0 0.0
2014-Jul-22 07:32N 33°00' W 118°33'0 0.0
2014-Jul-22 06:28N 33°00' W 118°33'0 0.0
2014-Jul-22 05:30N 33°00' W 118°33'0 0.0
2014-Jul-22 04:33N 33°00' W 118°33'0 0.0
2014-Jul-22 03:32N 33°00' W 118°33'0 0.0
2014-Jul-22 02:33N 33°00' W 118°33'0 0.0
2014-Jul-22 01:30N 33°00' W 118°33'0 0.0
2014-Jul-22 00:33N 33°00' W 118°33'0 0.0
2014-Jul-21 23:32N 33°00' W 118°33'0 0.0
2014-Jul-21 22:33N 33°00' W 118°33'0 0.0
2014-Jul-21 21:12N 33°00' W 118°33'34 7.2
2014-Jul-21 16:32N 32°51' W 117°55'1616.4
2014-Jul-21 15:33N 32°45' W 117°37'1616.0
2014-Jul-21 14:33N 32°40' W 117°19'  
2014-Jul-18 20:33N 32°42' W 117°14'2 1.4
2014-Jul-18 19:29N 32°43' W 117°14'0 0.0
2014-Jul-18 17:27N 32°43' W 117°14'2 0.1
2014-Jul-18 01:19N 32°41' W 117°14'810.6
2014-Jul-18 00:34N 32°40' W 117°23'1817.6
2014-Jul-17 23:34N 32°46' W 117°43'45 2.0
2014-Jul-17 01:11N 33°01' W 118°33'0 0.0
2014-Jul-16 15:09N 33°01' W 118°33'0 0.0
2014-Jul-16 14:12N 33°01' W 118°33'0 0.0
2014-Jul-16 13:32N 33°01' W 118°33'0 0.0
2014-Jul-16 12:29N 33°01' W 118°33'0 0.0
2014-Jul-16 11:05N 33°01' W 118°33'0 0.0
2014-Jul-16 10:31N 33°01' W 118°33'0 0.0
2014-Jul-16 09:28N 33°01' W 118°33'0 0.0
2014-Jul-16 04:24N 33°01' W 118°33'0 0.0
2014-Jul-16 02:30N 33°01' W 118°33'28 2.8
2014-Jul-15 16:33N 32°52' W 118°01'1716.8
2014-Jul-15 15:33N 32°47' W 117°42'1716.5
2014-Jul-15 14:33N 32°41' W 117°24'8 7.7
2014-Jul-15 13:30N 32°41' W 117°14'0 0.0
2014-Jul-14 18:16N 32°41' W 117°14'2 2.7
2014-Jul-14 17:33N 32°43' W 117°14'0 0.0
2014-Jul-14 16:11N 32°43' W 117°14'0 0.0
2014-Jul-14 15:31N 32°43' W 117°14'1 1.1
2014-Jul-14 14:34N 32°43' W 117°12'  

Dump ship's entire track history